sensor_id;sensor_type;location;lat;lon;timestamp;pressure;altitude;pressure_sealevel;temperature;humidity
29467;BME280;60968;37.490;-122.288;2022-07-05T00:02:44;98696.69;;;23.31;54.96
29467;BME280;60968;37.490;-122.288;2022-07-05T00:05:45;98694.34;;;23.00;55.80
29467;BME280;60968;37.490;-122.288;2022-07-05T00:08:46;98690.63;;;23.16;56.03
29467;BME280;60968;37.490;-122.288;2022-07-05T00:11:46;98687.97;;;23.16;56.12
29467;BME280;60968;37.490;-122.288;2022-07-05T00:14:50;98691.06;;;23.22;56.11
29467;BME280;60968;37.490;-122.288;2022-07-05T00:17:51;98688.22;;;23.12;56.24
29467;BME280;60968;37.490;-122.288;2022-07-05T00:20:52;98688.31;;;22.98;56.70
29467;BME280;60968;37.490;-122.288;2022-07-05T00:23:53;98679.66;;;23.07;56.83
29467;BME280;60968;37.490;-122.288;2022-07-05T00:26:54;98677.00;;;23.07;57.36
29467;BME280;60968;37.490;-122.288;2022-07-05T00:29:55;98681.81;;;23.15;57.62
29467;BME280;60968;37.490;-122.288;2022-07-05T00:32:57;98678.19;;;23.03;57.05
29467;BME280;60968;37.490;-122.288;2022-07-05T00:35:57;98668.66;;;22.88;57.55
29467;BME280;60968;37.490;-122.288;2022-07-05T00:38:58;98673.88;;;22.76;57.95
29467;BME280;60968;37.490;-122.288;2022-07-05T00:42:00;98672.94;;;22.52;58.60
29467;BME280;60968;37.490;-122.288;2022-07-05T00:45:04;98669.47;;;22.24;59.14
29467;BME280;60968;37.490;-122.288;2022-07-05T00:48:07;98673.25;;;22.07;59.98
29467;BME280;60968;37.490;-122.288;2022-07-05T00:51:08;98670.72;;;22.05;60.54
29467;BME280;60968;37.490;-122.288;2022-07-05T00:54:10;98666.47;;;22.03;60.46
29467;BME280;60968;37.490;-122.288;2022-07-05T00:57:10;98666.47;;;22.03;61.05
29467;BME280;60968;37.490;-122.288;2022-07-05T01:00:13;98667.19;;;22.05;60.85
29467;BME280;60968;37.490;-122.288;2022-07-05T01:03:15;98659.41;;;21.89;61.78
29467;BME280;60968;37.490;-122.288;2022-07-05T01:06:17;98656.09;;;21.85;61.71
29467;BME280;60968;37.490;-122.288;2022-07-05T01:09:19;98654.91;;;21.76;61.72
29467;BME280;60968;37.490;-122.288;2022-07-05T01:12:21;98654.41;;;21.57;62.81
29467;BME280;60968;37.490;-122.288;2022-07-05T01:15:23;98655.78;;;21.35;63.70
29467;BME280;60968;37.490;-122.288;2022-07-05T01:18:25;98649.19;;;21.28;64.07
29467;BME280;60968;37.490;-122.288;2022-07-05T01:21:27;98653.94;;;21.08;65.08
29467;BME280;60968;37.490;-122.288;2022-07-05T01:24:30;98647.34;;;21.01;65.04
29467;BME280;60968;37.490;-122.288;2022-07-05T01:27:31;98652.16;;;20.95;65.37
29467;BME280;60968;37.490;-122.288;2022-07-05T01:30:34;98648.31;;;20.86;66.16
29467;BME280;60968;37.490;-122.288;2022-07-05T01:33:35;98643.94;;;20.85;66.24
29467;BME280;60968;37.490;-122.288;2022-07-05T01:36:37;98647.94;;;20.78;66.23
29467;BME280;60968;37.490;-122.288;2022-07-05T01:39:38;98656.69;;;20.64;67.09
29467;BME280;60968;37.490;-122.288;2022-07-05T01:42:40;98652.97;;;20.37;68.53
29467;BME280;60968;37.490;-122.288;2022-07-05T01:45:41;98652.59;;;20.44;68.29
29467;BME280;60968;37.490;-122.288;2022-07-05T01:48:42;98654.84;;;20.35;69.22
29467;BME280;60968;37.490;-122.288;2022-07-05T01:51:51;98655.00;;;20.18;69.94
29467;BME280;60968;37.490;-122.288;2022-07-05T01:54:54;98671.44;;;20.09;70.82
29467;BME280;60968;37.490;-122.288;2022-07-05T01:57:56;98670.84;;;20.03;71.34
29467;BME280;60968;37.490;-122.288;2022-07-05T02:00:58;98660.81;;;19.78;72.54
29467;BME280;60968;37.490;-122.288;2022-07-05T02:03:59;98679.25;;;19.64;73.37
29467;BME280;60968;37.490;-122.288;2022-07-05T02:07:04;98674.00;;;19.48;73.97
29467;BME280;60968;37.490;-122.288;2022-07-05T02:10:05;98675.78;;;19.31;74.61
29467;BME280;60968;37.490;-122.288;2022-07-05T02:13:06;98690.91;;;19.12;75.74
29467;BME280;60968;37.490;-122.288;2022-07-05T02:16:07;98682.91;;;18.97;76.38
29467;BME280;60968;37.490;-122.288;2022-07-05T02:19:08;98689.44;;;18.73;78.08
29467;BME280;60968;37.490;-122.288;2022-07-05T02:22:09;98692.88;;;18.57;78.82
29467;BME280;60968;37.490;-122.288;2022-07-05T02:25:13;98691.66;;;18.47;79.57
29467;BME280;60968;37.490;-122.288;2022-07-05T02:28:13;98698.03;;;18.43;79.42
29467;BME280;60968;37.490;-122.288;2022-07-05T02:31:14;98694.84;;;18.36;80.01
29467;BME280;60968;37.490;-122.288;2022-07-05T02:34:15;98701.53;;;18.26;80.76
29467;BME280;60968;37.490;-122.288;2022-07-05T02:37:16;98707.81;;;18.23;81.28
29467;BME280;60968;37.490;-122.288;2022-07-05T02:40:17;98709.34;;;18.10;82.14
29467;BME280;60968;37.490;-122.288;2022-07-05T02:43:18;98710.41;;;18.06;82.61
29467;BME280;60968;37.490;-122.288;2022-07-05T02:46:18;98718.81;;;18.14;82.58
29467;BME280;60968;37.490;-122.288;2022-07-05T02:49:19;98711.84;;;18.13;83.01
29467;BME280;60968;37.490;-122.288;2022-07-05T02:52:20;98711.06;;;18.11;83.29
29467;BME280;60968;37.490;-122.288;2022-07-05T02:55:21;98708.34;;;18.12;83.37
29467;BME280;60968;37.490;-122.288;2022-07-05T02:58:22;98703.53;;;18.03;83.86
29467;BME280;60968;37.490;-122.288;2022-07-05T03:01:23;98702.31;;;18.10;83.59
29467;BME280;60968;37.490;-122.288;2022-07-05T03:04:25;98696.88;;;18.13;83.66
29467;BME280;60968;37.490;-122.288;2022-07-05T03:07:27;98703.97;;;18.11;83.93
29467;BME280;60968;37.490;-122.288;2022-07-05T03:10:27;98706.78;;;18.08;84.08
29467;BME280;60968;37.490;-122.288;2022-07-05T03:13:28;98708.50;;;18.09;84.05
29467;BME280;60968;37.490;-122.288;2022-07-05T03:16:29;98714.16;;;18.02;84.75
29467;BME280;60968;37.490;-122.288;2022-07-05T03:19:30;98711.44;;;17.84;85.79
29467;BME280;60968;37.490;-122.288;2022-07-05T03:22:31;98718.50;;;17.83;86.10
29467;BME280;60968;37.490;-122.288;2022-07-05T03:25:32;98707.19;;;17.81;86.10
29467;BME280;60968;37.490;-122.288;2022-07-05T03:28:33;98719.19;;;17.87;86.19
29467;BME280;60968;37.490;-122.288;2022-07-05T03:31:33;98721.22;;;17.82;86.43
29467;BME280;60968;37.490;-122.288;2022-07-05T03:34:36;98711.75;;;17.78;86.57
29467;BME280;60968;37.490;-122.288;2022-07-05T03:37:37;98713.00;;;17.71;87.08
29467;BME280;60968;37.490;-122.288;2022-07-05T03:40:37;98709.56;;;17.69;87.10
29467;BME280;60968;37.490;-122.288;2022-07-05T03:43:38;98709.56;;;17.69;87.22
29467;BME280;60968;37.490;-122.288;2022-07-05T03:46:39;98722.66;;;17.70;87.34
29467;BME280;60968;37.490;-122.288;2022-07-05T03:49:40;98719.44;;;17.63;87.73
29467;BME280;60968;37.490;-122.288;2022-07-05T03:52:42;98721.53;;;17.57;87.82
29467;BME280;60968;37.490;-122.288;2022-07-05T03:55:42;98725.25;;;17.53;88.30
29467;BME280;60968;37.490;-122.288;2022-07-05T03:58:43;98728.81;;;17.52;88.36
29467;BME280;60968;37.490;-122.288;2022-07-05T04:01:44;98728.16;;;17.46;89.15
29467;BME280;60968;37.490;-122.288;2022-07-05T04:04:45;98728.94;;;17.48;89.43
29467;BME280;60968;37.490;-122.288;2022-07-05T04:07:54;98729.78;;;17.49;89.53
29467;BME280;60968;37.490;-122.288;2022-07-05T04:10:54;98726.47;;;17.45;90.05
29467;BME280;60968;37.490;-122.288;2022-07-05T04:13:55;98715.84;;;17.47;89.58
29467;BME280;60968;37.490;-122.288;2022-07-05T04:16:56;98714.28;;;17.43;90.03
29467;BME280;60968;37.490;-122.288;2022-07-05T04:19:57;98714.44;;;17.40;90.80
29467;BME280;60968;37.490;-122.288;2022-07-05T04:23:00;98711.66;;;17.43;90.80
29467;BME280;60968;37.490;-122.288;2022-07-05T04:26:01;98707.22;;;17.43;91.06
29467;BME280;60968;37.490;-122.288;2022-07-05T04:29:02;98709.63;;;17.48;90.96
29467;BME280;60968;37.490;-122.288;2022-07-05T04:32:03;98707.00;;;17.48;91.19
29467;BME280;60968;37.490;-122.288;2022-07-05T04:35:06;98705.41;;;17.45;91.73
29467;BME280;60968;37.490;-122.288;2022-07-05T04:38:07;98709.78;;;17.45;92.03
29467;BME280;60968;37.490;-122.288;2022-07-05T04:41:07;98710.44;;;17.50;91.83
29467;BME280;60968;37.490;-122.288;2022-07-05T04:44:08;98709.53;;;17.51;91.69
29467;BME280;60968;37.490;-122.288;2022-07-05T04:47:09;98716.41;;;17.54;91.75
29467;BME280;60968;37.490;-122.288;2022-07-05T04:50:10;98714.41;;;17.59;91.44
29467;BME280;60968;37.490;-122.288;2022-07-05T04:53:12;98724.59;;;17.66;91.10
29467;BME280;60968;37.490;-122.288;2022-07-05T04:56:14;98727.69;;;17.75;90.54
29467;BME280;60968;37.490;-122.288;2022-07-05T04:59:14;98735.75;;;17.72;90.96
29467;BME280;60968;37.490;-122.288;2022-07-05T05:02:15;98745.16;;;17.77;90.51
29467;BME280;60968;37.490;-122.288;2022-07-05T05:05:16;98746.75;;;17.62;90.58
29467;BME280;60968;37.490;-122.288;2022-07-05T05:08:17;98750.03;;;17.48;90.64
29467;BME280;60968;37.490;-122.288;2022-07-05T05:11:18;98752.09;;;17.42;91.41
29467;BME280;60968;37.490;-122.288;2022-07-05T05:14:19;98748.72;;;17.38;91.57
29467;BME280;60968;37.490;-122.288;2022-07-05T05:17:20;98745.09;;;17.41;91.64
29467;BME280;60968;37.490;-122.288;2022-07-05T05:20:21;98757.94;;;17.48;91.73
29467;BME280;60968;37.490;-122.288;2022-07-05T05:23:23;98756.72;;;17.56;91.30
29467;BME280;60968;37.490;-122.288;2022-07-05T05:26:24;98752.13;;;17.59;91.36
29467;BME280;60968;37.490;-122.288;2022-07-05T05:29:25;98758.94;;;17.65;90.93
29467;BME280;60968;37.490;-122.288;2022-07-05T05:32:27;98756.06;;;17.70;90.96
29467;BME280;60968;37.490;-122.288;2022-07-05T05:35:28;98760.41;;;17.71;91.04
29467;BME280;60968;37.490;-122.288;2022-07-05T05:38:30;98753.44;;;17.70;91.30
29467;BME280;60968;37.490;-122.288;2022-07-05T05:41:30;98751.78;;;17.67;92.25
29467;BME280;60968;37.490;-122.288;2022-07-05T05:44:31;98746.75;;;17.62;93.04
29467;BME280;60968;37.490;-122.288;2022-07-05T05:47:32;98753.84;;;17.60;93.42
29467;BME280;60968;37.490;-122.288;2022-07-05T05:50:36;98750.94;;;17.66;93.10
29467;BME280;60968;37.490;-122.288;2022-07-05T05:53:37;98744.59;;;17.71;93.45
29467;BME280;60968;37.490;-122.288;2022-07-05T05:56:37;98749.81;;;17.72;93.95
29467;BME280;60968;37.490;-122.288;2022-07-05T05:59:38;98747.09;;;17.74;94.08
29467;BME280;60968;37.490;-122.288;2022-07-05T06:02:40;98743.56;;;17.73;94.26
29467;BME280;60968;37.490;-122.288;2022-07-05T06:05:41;98746.94;;;17.77;94.01
29467;BME280;60968;37.490;-122.288;2022-07-05T06:08:42;98740.19;;;17.71;94.75
29467;BME280;60968;37.490;-122.288;2022-07-05T06:11:43;98740.69;;;17.60;94.95
29467;BME280;60968;37.490;-122.288;2022-07-05T06:14:44;98745.34;;;17.55;95.47
29467;BME280;60968;37.490;-122.288;2022-07-05T06:17:46;98739.47;;;17.29;97.03
29467;BME280;60968;37.490;-122.288;2022-07-05T06:20:46;98738.59;;;17.10;98.92
29467;BME280;60968;37.490;-122.288;2022-07-05T06:23:47;98735.19;;;17.08;99.36
29467;BME280;60968;37.490;-122.288;2022-07-05T06:26:49;98739.88;;;17.01;100.00
29467;BME280;60968;37.490;-122.288;2022-07-05T06:29:50;98736.41;;;17.01;100.00
29467;BME280;60968;37.490;-122.288;2022-07-05T06:32:52;98729.94;;;17.08;100.00
29467;BME280;60968;37.490;-122.288;2022-07-05T06:35:53;98731.50;;;17.12;100.00
29467;BME280;60968;37.490;-122.288;2022-07-05T06:38:53;98728.59;;;17.18;100.00
29467;BME280;60968;37.490;-122.288;2022-07-05T06:41:54;98725.69;;;17.24;100.00
29467;BME280;60968;37.490;-122.288;2022-07-05T06:44:56;98729.75;;;17.31;100.00
29467;BME280;60968;37.490;-122.288;2022-07-05T06:48:07;98724.81;;;17.43;99.25
29467;BME280;60968;37.490;-122.288;2022-07-05T06:51:09;98725.41;;;17.49;98.55
29467;BME280;60968;37.490;-122.288;2022-07-05T06:54:10;98717.44;;;17.51;98.31
29467;BME280;60968;37.490;-122.288;2022-07-05T06:57:11;98719.25;;;17.49;98.48
29467;BME280;60968;37.490;-122.288;2022-07-05T07:00:12;98711.28;;;17.51;98.35
29467;BME280;60968;37.490;-122.288;2022-07-05T07:03:15;98722.38;;;17.57;97.97
29467;BME280;60968;37.490;-122.288;2022-07-05T07:06:16;98712.91;;;17.53;97.40
29467;BME280;60968;37.490;-122.288;2022-07-05T07:09:17;98707.97;;;17.47;97.54
29467;BME280;60968;37.490;-122.288;2022-07-05T07:12:17;98720.47;;;17.42;97.84
29467;BME280;60968;37.490;-122.288;2022-07-05T07:15:18;98714.63;;;17.35;98.08
29467;BME280;60968;37.490;-122.288;2022-07-05T07:18:19;98712.94;;;17.34;98.50
29467;BME280;60968;37.490;-122.288;2022-07-05T07:21:20;98710.16;;;17.37;98.86
29467;BME280;60968;37.490;-122.288;2022-07-05T07:24:21;98707.31;;;17.42;98.63
29467;BME280;60968;37.490;-122.288;2022-07-05T07:27:23;98708.38;;;17.38;99.13
29467;BME280;60968;37.490;-122.288;2022-07-05T07:30:26;98698.50;;;17.43;98.57
29467;BME280;60968;37.490;-122.288;2022-07-05T07:33:27;98701.91;;;17.45;98.06
29467;BME280;60968;37.490;-122.288;2022-07-05T07:36:28;98696.78;;;17.42;97.54
29467;BME280;60968;37.490;-122.288;2022-07-05T07:39:29;98697.34;;;17.29;98.57
29467;BME280;60968;37.490;-122.288;2022-07-05T07:42:30;98689.53;;;17.28;98.24
29467;BME280;60968;37.490;-122.288;2022-07-05T07:45:31;98693.22;;;17.24;98.51
29467;BME280;60968;37.490;-122.288;2022-07-05T07:48:32;98684.47;;;17.23;98.39
29467;BME280;60968;37.490;-122.288;2022-07-05T07:51:34;98687.97;;;17.24;98.94
29467;BME280;60968;37.490;-122.288;2022-07-05T07:54:35;98688.84;;;17.24;99.01
29467;BME280;60968;37.490;-122.288;2022-07-05T07:57:36;98679.28;;;17.22;99.70
29467;BME280;60968;37.490;-122.288;2022-07-05T08:00:37;98679.38;;;17.20;99.21
29467;BME280;60968;37.490;-122.288;2022-07-05T08:03:38;98688.41;;;17.14;99.20
29467;BME280;60968;37.490;-122.288;2022-07-05T08:06:39;98687.81;;;17.08;99.87
29467;BME280;60968;37.490;-122.288;2022-07-05T08:09:40;98687.97;;;17.05;100.00
29467;BME280;60968;37.490;-122.288;2022-07-05T08:12:41;98686.09;;;17.07;100.00
29467;BME280;60968;37.490;-122.288;2022-07-05T08:15:42;98695.66;;;17.09;99.91
29467;BME280;60968;37.490;-122.288;2022-07-05T08:18:42;98693.84;;;17.10;99.93
29467;BME280;60968;37.490;-122.288;2022-07-05T08:21:44;98689.16;;;17.17;99.10
29467;BME280;60968;37.490;-122.288;2022-07-05T08:24:45;98690.09;;;17.15;98.87
29467;BME280;60968;37.490;-122.288;2022-07-05T08:27:46;98680.44;;;17.16;98.98
29467;BME280;60968;37.490;-122.288;2022-07-05T08:30:47;98676.16;;;17.13;99.30
29467;BME280;60968;37.490;-122.288;2022-07-05T08:33:48;98681.50;;;17.12;99.80
29467;BME280;60968;37.490;-122.288;2022-07-05T08:36:49;98681.41;;;17.13;99.60
29467;BME280;60968;37.490;-122.288;2022-07-05T08:39:50;98683.97;;;17.15;99.35
29467;BME280;60968;37.490;-122.288;2022-07-05T08:42:52;98681.84;;;17.04;100.00
29467;BME280;60968;37.490;-122.288;2022-07-05T08:45:56;98684.28;;;17.09;100.00
29467;BME280;60968;37.490;-122.288;2022-07-05T08:49:03;98681.13;;;17.01;100.00
29467;BME280;60968;37.490;-122.288;2022-07-05T08:52:07;98670.75;;;16.97;100.00
29467;BME280;60968;37.490;-122.288;2022-07-05T08:55:10;98668.13;;;16.97;100.00
29467;BME280;60968;37.490;-122.288;2022-07-05T08:58:12;98667.47;;;16.92;100.00
29467;BME280;60968;37.490;-122.288;2022-07-05T09:01:13;98674.38;;;16.95;100.00
29467;BME280;60968;37.490;-122.288;2022-07-05T09:04:16;98676.03;;;16.97;100.00
29467;BME280;60968;37.490;-122.288;2022-07-05T09:07:20;98672.59;;;16.95;100.00
29467;BME280;60968;37.490;-122.288;2022-07-05T09:10:27;98671.81;;;16.93;100.00
29467;BME280;60968;37.490;-122.288;2022-07-05T09:13:32;98660.63;;;16.88;100.00
29467;BME280;60968;37.490;-122.288;2022-07-05T09:16:34;98661.97;;;16.78;100.00
29467;BME280;60968;37.490;-122.288;2022-07-05T09:19:36;98655.75;;;16.79;100.00
29467;BME280;60968;37.490;-122.288;2022-07-05T09:22:48;98657.75;;;16.74;100.00
29467;BME280;60968;37.490;-122.288;2022-07-05T09:25:50;98658.59;;;16.74;100.00
29467;BME280;60968;37.490;-122.288;2022-07-05T09:29:06;98657.75;;;16.74;100.00
29467;BME280;60968;37.490;-122.288;2022-07-05T09:32:08;98652.59;;;16.71;100.00
29467;BME280;60968;37.490;-122.288;2022-07-05T09:35:21;98650.91;;;16.70;100.00
29467;BME280;60968;37.490;-122.288;2022-07-05T09:38:23;98664.00;;;16.71;100.00
29467;BME280;60968;37.490;-122.288;2022-07-05T09:41:24;98646.50;;;16.70;100.00
29467;BME280;60968;37.490;-122.288;2022-07-05T09:44:25;98652.59;;;16.71;100.00
29467;BME280;60968;37.490;-122.288;2022-07-05T09:47:29;98655.22;;;16.71;100.00
29467;BME280;60968;37.490;-122.288;2022-07-05T09:50:34;98657.88;;;16.71;100.00
29467;BME280;60968;37.490;-122.288;2022-07-05T09:53:49;98660.47;;;16.72;100.00
29467;BME280;60968;37.490;-122.288;2022-07-05T09:56:51;98658.75;;;16.71;100.00
29467;BME280;60968;37.490;-122.288;2022-07-05T10:00:03;98662.22;;;16.72;100.00
29467;BME280;60968;37.490;-122.288;2022-07-05T10:03:06;98653.41;;;16.73;100.00
29467;BME280;60968;37.490;-122.288;2022-07-05T10:06:10;98655.13;;;16.74;100.00
29467;BME280;60968;37.490;-122.288;2022-07-05T10:09:12;98657.25;;;16.66;100.00
29467;BME280;60968;37.490;-122.288;2022-07-05T10:12:13;98662.63;;;16.62;100.00
29467;BME280;60968;37.490;-122.288;2022-07-05T10:15:16;98659.03;;;16.44;100.00
29467;BME280;60968;37.490;-122.288;2022-07-05T10:18:22;98666.63;;;16.32;100.00
29467;BME280;60968;37.490;-122.288;2022-07-05T10:21:27;98663.59;;;16.20;100.00
29467;BME280;60968;37.490;-122.288;2022-07-05T10:24:33;98660.16;;;16.18;100.00
29467;BME280;60968;37.490;-122.288;2022-07-05T10:27:36;98653.19;;;16.17;100.00
29467;BME280;60968;37.490;-122.288;2022-07-05T10:30:37;98657.59;;;16.17;100.00
29467;BME280;60968;37.490;-122.288;2022-07-05T10:33:39;98660.16;;;16.18;100.00
29467;BME280;60968;37.490;-122.288;2022-07-05T10:36:39;98648.06;;;16.14;100.00
29467;BME280;60968;37.490;-122.288;2022-07-05T10:39:42;98650.91;;;16.09;100.00
29467;BME280;60968;37.490;-122.288;2022-07-05T10:42:48;98645.72;;;16.08;100.00
29467;BME280;60968;37.490;-122.288;2022-07-05T10:45:51;98645.03;;;16.03;100.00
29467;BME280;60968;37.490;-122.288;2022-07-05T10:49:13;98649.63;;;15.98;100.00
29467;BME280;60968;37.490;-122.288;2022-07-05T10:52:25;98643.59;;;15.95;100.00
29467;BME280;60968;37.490;-122.288;2022-07-05T10:55:26;98648.72;;;15.99;100.00
29467;BME280;60968;37.490;-122.288;2022-07-05T10:58:46;98645.44;;;15.93;100.00
29467;BME280;60968;37.490;-122.288;2022-07-05T11:01:48;98650.16;;;15.85;100.00
29467;BME280;60968;37.490;-122.288;2022-07-05T11:04:55;98651.13;;;15.83;100.00
29467;BME280;60968;37.490;-122.288;2022-07-05T11:08:00;98648.00;;;15.73;100.00
29467;BME280;60968;37.490;-122.288;2022-07-05T11:11:13;98647.09;;;15.74;100.00
29467;BME280;60968;37.490;-122.288;2022-07-05T11:17:22;98646.72;;;15.83;100.00
29467;BME280;60968;37.490;-122.288;2022-07-05T11:20:30;98643.44;;;15.78;100.00
29467;BME280;60968;37.490;-122.288;2022-07-05T11:23:32;98649.72;;;15.74;100.00
29467;BME280;60968;37.490;-122.288;2022-07-05T11:26:33;98645.56;;;15.68;100.00
29467;BME280;60968;37.490;-122.288;2022-07-05T11:32:43;98650.09;;;15.65;100.00
29467;BME280;60968;37.490;-122.288;2022-07-05T11:35:45;98663.22;;;15.65;100.00
29467;BME280;60968;37.490;-122.288;2022-07-05T11:39:14;98665.06;;;15.63;100.00
29467;BME280;60968;37.490;-122.288;2022-07-05T11:42:22;98658.03;;;15.63;100.00
29467;BME280;60968;37.490;-122.288;2022-07-05T11:45:23;98651.53;;;15.72;100.00
29467;BME280;60968;37.490;-122.288;2022-07-05T11:48:28;98657.41;;;15.78;100.00
29467;BME280;60968;37.490;-122.288;2022-07-05T11:51:29;98643.06;;;15.87;100.00
29467;BME280;60968;37.490;-122.288;2022-07-05T11:54:34;98640.38;;;15.89;100.00
29467;BME280;60968;37.490;-122.288;2022-07-05T11:57:36;98645.44;;;15.93;100.00
29467;BME280;60968;37.490;-122.288;2022-07-05T12:00:37;98635.78;;;15.94;100.00
29467;BME280;60968;37.490;-122.288;2022-07-05T12:03:38;98635.84;;;15.92;100.00
29467;BME280;60968;37.490;-122.288;2022-07-05T12:06:42;98638.53;;;15.91;100.00
29467;BME280;60968;37.490;-122.288;2022-07-05T12:09:43;98645.63;;;15.89;100.00
29467;BME280;60968;37.490;-122.288;2022-07-05T12:12:44;98638.72;;;15.86;100.00
29467;BME280;60968;37.490;-122.288;2022-07-05T12:15:45;98634.41;;;15.85;100.00
29467;BME280;60968;37.490;-122.288;2022-07-05T12:18:50;98632.47;;;15.89;100.00
29467;BME280;60968;37.490;-122.288;2022-07-05T12:21:54;98641.88;;;15.94;100.00
29467;BME280;60968;37.490;-122.288;2022-07-05T12:24:55;98639.91;;;16.00;100.00
29467;BME280;60968;37.490;-122.288;2022-07-05T12:27:58;98633.56;;;16.05;100.00
29467;BME280;60968;37.490;-122.288;2022-07-05T12:30:59;98632.56;;;16.08;100.00
29467;BME280;60968;37.490;-122.288;2022-07-05T12:34:18;98648.06;;;16.14;100.00
29467;BME280;60968;37.490;-122.288;2022-07-05T12:37:24;98643.47;;;16.19;100.00
29467;BME280;60968;37.490;-122.288;2022-07-05T12:40:26;98646.81;;;16.23;100.00
29467;BME280;60968;37.490;-122.288;2022-07-05T12:43:28;98643.94;;;16.29;100.00
29467;BME280;60968;37.490;-122.288;2022-07-05T12:46:36;98649.25;;;16.27;100.00
29467;BME280;60968;37.490;-122.288;2022-07-05T12:49:55;98652.03;;;16.24;100.00
29467;BME280;60968;37.490;-122.288;2022-07-05T12:53:04;98656.41;;;16.24;100.00
29467;BME280;60968;37.490;-122.288;2022-07-05T12:56:10;98652.94;;;16.23;100.00
29467;BME280;60968;37.490;-122.288;2022-07-05T12:59:11;98654.66;;;16.24;100.00
29467;BME280;60968;37.490;-122.288;2022-07-05T13:02:12;98661.59;;;16.25;100.00
29467;BME280;60968;37.490;-122.288;2022-07-05T13:05:21;98655.63;;;16.22;100.00
29467;BME280;60968;37.490;-122.288;2022-07-05T13:08:29;98656.63;;;16.19;100.00
29467;BME280;60968;37.490;-122.288;2022-07-05T13:11:33;98654.91;;;16.18;100.00
29467;BME280;60968;37.490;-122.288;2022-07-05T13:14:34;98657.38;;;16.21;100.00
29467;BME280;60968;37.490;-122.288;2022-07-05T13:17:36;98655.44;;;16.26;100.00
29467;BME280;60968;37.490;-122.288;2022-07-05T13:20:37;98657.91;;;16.29;100.00
29467;BME280;60968;37.490;-122.288;2022-07-05T13:23:38;98662.47;;;16.26;100.00
29467;BME280;60968;37.490;-122.288;2022-07-05T13:26:39;98669.41;;;16.27;100.00
29467;BME280;60968;37.490;-122.288;2022-07-05T13:29:40;98666.72;;;16.28;100.00
29467;BME280;60968;37.490;-122.288;2022-07-05T13:32:41;98671.88;;;16.32;100.00
29467;BME280;60968;37.490;-122.288;2022-07-05T13:35:42;98674.09;;;16.41;100.00
29467;BME280;60968;37.490;-122.288;2022-07-05T13:38:43;98670.25;;;16.48;100.00
29467;BME280;60968;37.490;-122.288;2022-07-05T13:41:43;98670.09;;;16.53;100.00
29467;BME280;60968;37.490;-122.288;2022-07-05T13:44:46;98668.81;;;16.61;100.00
29467;BME280;60968;37.490;-122.288;2022-07-05T13:47:47;98680.63;;;16.72;100.00
29467;BME280;60968;37.490;-122.288;2022-07-05T13:50:48;98678.38;;;16.83;100.00
29467;BME280;60968;37.490;-122.288;2022-07-05T13:53:48;98676.94;;;16.96;100.00
29467;BME280;60968;37.490;-122.288;2022-07-05T13:56:50;98680.56;;;17.13;100.00
29467;BME280;60968;37.490;-122.288;2022-07-05T13:59:51;98685.66;;;17.35;100.00
29467;BME280;60968;37.490;-122.288;2022-07-05T14:02:52;98689.22;;;17.53;100.00
29467;BME280;60968;37.490;-122.288;2022-07-05T14:05:53;98688.16;;;17.57;100.00
29467;BME280;60968;37.490;-122.288;2022-07-05T14:08:54;98689.00;;;17.58;100.00
29467;BME280;60968;37.490;-122.288;2022-07-05T14:11:55;98683.88;;;17.55;100.00
29467;BME280;60968;37.490;-122.288;2022-07-05T14:14:56;98689.78;;;17.41;100.00
29467;BME280;60968;37.490;-122.288;2022-07-05T14:17:57;98692.34;;;17.42;100.00
29467;BME280;60968;37.490;-122.288;2022-07-05T14:20:58;98687.56;;;17.51;100.00
29467;BME280;60968;37.490;-122.288;2022-07-05T14:23:59;98689.06;;;17.56;100.00
29467;BME280;60968;37.490;-122.288;2022-07-05T14:26:59;98691.34;;;17.64;100.00
29467;BME280;60968;37.490;-122.288;2022-07-05T14:30:00;98692.69;;;17.73;100.00
29467;BME280;60968;37.490;-122.288;2022-07-05T14:33:02;98691.44;;;17.80;100.00
29467;BME280;60968;37.490;-122.288;2022-07-05T14:36:03;98689.38;;;17.87;100.00
29467;BME280;60968;37.490;-122.288;2022-07-05T14:39:05;98694.06;;;17.99;100.00
29467;BME280;60968;37.490;-122.288;2022-07-05T14:42:06;98685.06;;;18.21;100.00
29467;BME280;60968;37.490;-122.288;2022-07-05T14:45:07;98687.34;;;18.28;100.00
29467;BME280;60968;37.490;-122.288;2022-07-05T14:48:08;98695.69;;;18.37;99.61
29467;BME280;60968;37.490;-122.288;2022-07-05T14:51:10;98693.53;;;18.27;97.86
29467;BME280;60968;37.490;-122.288;2022-07-05T14:54:11;98686.56;;;18.26;100.00
29467;BME280;60968;37.490;-122.288;2022-07-05T14:57:12;98697.16;;;18.42;99.73
29467;BME280;60968;37.490;-122.288;2022-07-05T15:00:15;98689.31;;;18.41;98.21
29467;BME280;60968;37.490;-122.288;2022-07-05T15:03:16;98690.66;;;18.49;98.13
29467;BME280;60968;37.490;-122.288;2022-07-05T15:06:17;98694.97;;;18.50;97.31
29467;BME280;60968;37.490;-122.288;2022-07-05T15:09:18;98691.34;;;18.53;96.98
29467;BME280;60968;37.490;-122.288;2022-07-05T15:12:19;98690.88;;;18.62;96.28
29467;BME280;60968;37.490;-122.288;2022-07-05T15:15:20;98685.25;;;18.68;95.73
29467;BME280;60968;37.490;-122.288;2022-07-05T15:18:20;98698.81;;;18.78;95.63
29467;BME280;60968;37.490;-122.288;2022-07-05T15:21:21;98702.78;;;18.87;95.72
29467;BME280;60968;37.490;-122.288;2022-07-05T15:24:23;98699.53;;;18.82;93.79
29467;BME280;60968;37.490;-122.288;2022-07-05T15:27:24;98705.44;;;18.87;94.44
29467;BME280;60968;37.490;-122.288;2022-07-05T15:30:25;98707.66;;;18.95;93.99